Time;durP1;ratioP1;P1;durP2;ratioP2;P2;SDS_P1;SDS_P2;PMS_P1;PMS_P2;Temp;Humidity;BMP_temperature;BMP_pressure;BME280_temperature;BME280_humidity;BME280_pressure;Samples;Min_cycle;Max_cycle;Signal;HPM_P1;HPM_P2
2023/05/20 00:02:00;;;;;;;3.70;1.85;;;;;;;12.97;72.60;102393.19;5130612;28;20066;-36
2023/05/20 00:04:25;;;;;;;6.82;1.90;;;;;;;12.85;73.25;102387.56;5130522;28;20456;-36
2023/05/20 00:06:51;;;;;;;5.00;2.00;;;;;;;12.86;72.48;102394.66;5131367;27;20028;-36
2023/05/20 00:09:16;;;;;;;6.65;2.15;;;;;;;12.79;73.32;102385.69;5131218;28;20289;-36
2023/05/20 00:11:42;;;;;;;7.22;1.98;;;;;;;12.77;72.76;102395.91;5122703;27;20069;-36
2023/05/20 00:14:07;;;;;;;4.45;1.77;;;;;;;12.76;73.49;102396.94;5116690;28;20027;-36
2023/05/20 00:16:33;;;;;;;4.43;1.80;;;;;;;12.68;74.48;102394.44;5116967;28;20417;-36
2023/05/20 00:18:58;;;;;;;5.82;2.45;;;;;;;12.70;75.18;102393.19;5116819;28;20106;-36
2023/05/20 00:21:23;;;;;;;4.88;2.10;;;;;;;12.68;74.97;102397.13;5117465;28;20367;-36
2023/05/20 00:23:49;;;;;;;4.95;2.28;;;;;;;12.64;75.59;102404.88;5116344;28;20016;-36
2023/05/20 00:26:15;;;;;;;4.05;2.35;;;;;;;12.53;75.92;102397.31;5116740;28;20016;-37
2023/05/20 00:28:40;;;;;;;7.70;2.78;;;;;;;12.51;75.92;102404.84;5116606;28;20038;-36
2023/05/20 00:31:06;;;;;;;6.27;2.20;;;;;;;12.60;75.70;102404.44;5116836;28;20532;-36
2023/05/20 00:33:31;;;;;;;4.65;2.03;;;;;;;12.56;75.40;102397.75;5116243;28;20418;-36
2023/05/20 00:35:56;;;;;;;6.43;2.53;;;;;;;12.46;76.72;102383.75;5117337;28;20055;-36
2023/05/20 00:38:22;;;;;;;5.23;2.10;;;;;;;12.40;76.75;102403.59;5116536;28;20035;-39
2023/05/20 00:40:47;;;;;;;4.68;2.05;;;;;;;12.48;76.61;102395.22;5116960;28;20027;-36
2023/05/20 00:43:12;;;;;;;5.13;2.10;;;;;;;12.41;76.20;102386.25;5116430;28;20487;-36
2023/05/20 00:45:38;;;;;;;4.33;1.83;;;;;;;12.47;76.78;102388.13;5116448;28;20744;-36
2023/05/20 00:48:04;;;;;;;5.22;1.98;;;;;;;12.32;77.91;102379.34;5116350;28;20030;-36
2023/05/20 00:50:30;;;;;;;7.68;2.50;;;;;;;12.35;77.55;102387.09;5116233;28;20023;-36
2023/05/20 00:52:57;;;;;;;5.75;1.95;;;;;;;12.34;78.10;102388.94;5116516;28;20035;-36
2023/05/20 00:55:23;;;;;;;5.72;2.25;;;;;;;12.36;78.15;102391.47;5116708;28;20063;-36
2023/05/20 00:57:49;;;;;;;8.30;2.53;;;;;;;12.33;78.65;102386.44;5115844;28;20080;-36
2023/05/20 01:00:14;;;;;;;7.53;2.20;;;;;;;12.27;78.29;102379.97;5116147;27;20484;-36
2023/05/20 01:02:39;;;;;;;4.93;2.25;;;;;;;12.24;78.48;102377.66;5115816;28;20070;-36
2023/05/20 01:05:05;;;;;;;6.17;2.20;;;;;;;12.16;79.39;102379.72;5115722;28;20024;-36
2023/05/20 01:07:31;;;;;;;3.97;2.00;;;;;;;12.13;79.82;102380.13;5116505;28;20456;-36
2023/05/20 01:09:58;;;;;;;6.03;2.40;;;;;;;12.05;79.74;102384.72;5116124;28;20425;-36
2023/05/20 01:12:30;;;;;;;8.70;2.30;;;;;;;12.08;80.56;102383.44;5116105;28;20080;-36
2023/05/20 01:15:08;;;;;;;6.13;2.55;;;;;;;11.97;79.90;102375.91;5115691;28;20490;-36
2023/05/20 01:17:37;;;;;;;7.15;2.47;;;;;;;12.00;80.83;102380.91;5115909;28;20039;-36
2023/05/20 01:20:04;;;;;;;4.25;2.00;;;;;;;11.95;81.05;102384.22;5115213;28;20065;-36
2023/05/20 01:22:30;;;;;;;6.15;2.55;;;;;;;11.92;80.88;102378.41;5115252;28;20028;-36
2023/05/20 01:24:56;;;;;;;7.20;2.50;;;;;;;11.99;80.55;102379.25;5115157;28;20505;-36
2023/05/20 01:27:22;;;;;;;5.30;2.22;;;;;;;11.91;80.47;102364.00;5115834;28;20101;-36
2023/05/20 01:29:49;;;;;;;6.38;2.20;;;;;;;11.87;82.16;102368.16;5115118;28;20476;-36
2023/05/20 01:32:33;;;;;;;6.05;2.65;;;;;;;11.91;81.41;102377.56;5115670;28;20035;-36
2023/05/20 01:34:59;;;;;;;5.43;2.28;;;;;;;11.84;82.20;102368.56;5115343;28;20476;-36
2023/05/20 01:37:26;;;;;;;;;;;;;;;11.96;78.82;102363.41;5115997;28;20028;-36
2023/05/20 01:39:52;;;;;;;5.43;2.10;;;;;;;11.90;81.75;102361.47;5115435;28;20370;-36
2023/05/20 01:42:18;;;;;;;6.50;2.53;;;;;;;11.76;82.17;102363.25;5115533;28;20264;-36
2023/05/20 01:44:44;;;;;;;;;;;;;;;11.91;79.15;102358.59;5115620;27;20070;-36
2023/05/20 01:47:09;;;;;;;4.55;2.40;;;;;;;11.73;82.05;102353.69;5114837;28;19907;-36
2023/05/20 01:49:35;;;;;;;4.30;2.20;;;;;;;11.60;83.67;102356.31;5115814;28;20073;-36
2023/05/20 01:52:01;;;;;;;4.53;2.20;;;;;;;11.54;84.20;102355.25;5115313;28;20020;-36
2023/05/20 01:54:26;;;;;;;5.57;2.20;;;;;;;11.71;84.06;102357.59;5114967;28;20063;-36
2023/05/20 01:56:51;;;;;;;6.03;2.40;;;;;;;11.64;83.38;102363.00;5115493;28;20315;-36
2023/05/20 01:59:17;;;;;;;4.72;2.70;;;;;;;11.61;83.12;102357.97;5115219;28;20034;-36
2023/05/20 02:01:42;;;;;;;5.93;2.50;;;;;;;11.64;84.26;102354.06;5115413;28;20410;-36
2023/05/20 02:04:08;;;;;;;4.32;2.40;;;;;;;11.55;84.75;102354.22;5114542;28;20023;-36
2023/05/20 02:06:33;;;;;;;5.50;2.10;;;;;;;11.61;84.51;102360.69;5114806;28;20114;-36
2023/05/20 02:08:59;;;;;;;5.70;2.60;;;;;;;11.63;84.01;102353.22;5114677;28;20311;-36
2023/05/20 02:11:25;;;;;;;3.08;2.13;;;;;;;11.49;84.29;102346.88;5115013;28;20363;-36
2023/05/20 02:13:50;;;;;;;4.50;2.60;;;;;;;11.52;84.96;102356.50;5114604;28;20035;-36
2023/05/20 02:16:16;;;;;;;5.57;2.55;;;;;;;11.52;85.27;102351.91;5114405;28;20598;-36
2023/05/20 02:18:41;;;;;;;5.20;2.20;;;;;;;11.47;85.57;102362.53;5114514;28;20491;-36
2023/05/20 02:21:07;;;;;;;6.95;2.50;;;;;;;11.42;85.95;102358.72;5114278;28;20027;-36
2023/05/20 02:23:33;;;;;;;4.20;2.35;;;;;;;11.39;85.70;102351.00;5114554;28;20051;-36
2023/05/20 02:25:58;;;;;;;6.30;2.53;;;;;;;11.39;86.68;102346.41;5114208;28;20024;-36
2023/05/20 02:28:24;;;;;;;8.95;2.72;;;;;;;11.28;86.46;102350.53;5115195;28;20036;-36
2023/05/20 02:30:52;;;;;;;6.50;2.90;;;;;;;11.24;87.27;102348.41;5115176;28;20035;-36
2023/05/20 02:33:18;;;;;;;7.82;2.80;;;;;;;11.27;87.41;102342.59;5114336;28;20110;-36
2023/05/20 02:35:43;;;;;;;4.25;2.30;;;;;;;11.24;88.15;102348.41;5114081;28;20110;-36
2023/05/20 02:38:12;;;;;;;5.18;2.25;;;;;;;11.19;87.91;102334.63;5114320;28;20053;-36
2023/05/20 02:40:37;;;;;;;6.95;2.67;;;;;;;11.25;87.84;102344.66;5114948;28;20027;-36
2023/05/20 02:43:03;;;;;;;4.72;2.28;;;;;;;11.22;88.31;102336.94;5114483;28;20368;-36
2023/05/20 02:45:28;;;;;;;6.47;2.20;;;;;;;11.24;88.05;102351.13;5114730;28;20032;-36
2023/05/20 02:47:57;;;;;;;4.63;2.70;;;;;;;11.13;88.61;102344.41;5114672;28;20028;-35
2023/05/20 02:50:22;;;;;;;5.22;2.50;;;;;;;11.12;89.56;102342.69;5114361;28;20031;-36
2023/05/20 02:52:48;;;;;;;7.07;2.60;;;;;;;11.17;88.56;102348.34;5113781;28;20387;-36
2023/05/20 02:55:13;;;;;;;5.87;3.03;;;;;;;11.16;89.41;102341.28;5114977;28;20807;-36
2023/05/20 02:57:38;;;;;;;6.53;2.63;;;;;;;11.22;89.15;102342.34;5114022;28;20349;-36
2023/05/20 03:00:06;;;;;;;5.63;2.88;;;;;;;11.17;89.80;102342.94;5114059;28;20540;-36
2023/05/20 03:02:31;;;;;;;5.50;3.05;;;;;;;11.17;90.22;102342.94;5114205;28;20051;-36
2023/05/20 03:04:56;;;;;;;5.00;2.65;;;;;;;11.18;90.40;102338.38;5114272;28;20419;-36
2023/05/20 03:07:22;;;;;;;4.70;2.70;;;;;;;11.20;90.43;102347.97;5114270;28;20024;-36
2023/05/20 03:09:47;;;;;;;6.68;2.80;;;;;;;11.16;90.78;102333.16;5113620;28;20034;-36
2023/05/20 03:12:13;;;;;;;7.30;2.90;;;;;;;11.18;90.87;102338.38;5114211;28;20053;-36
2023/05/20 03:14:38;;;;;;;4.93;2.40;;;;;;;11.11;91.08;102327.50;5113825;28;20517;-36
2023/05/20 03:17:04;;;;;;;6.27;2.63;;;;;;;11.20;89.99;102341.72;5113879;28;20068;-36
2023/05/20 03:19:29;;;;;;;4.57;2.60;;;;;;;11.16;91.36;102337.72;5113461;28;20368;-36
2023/05/20 03:21:55;;;;;;;5.55;2.60;;;;;;;11.13;91.23;102330.84;5113809;28;20039;-36
2023/05/20 03:24:22;;;;;;;6.73;2.47;;;;;;;11.03;91.18;102324.97;5113455;28;20032;-36
2023/05/20 03:26:47;;;;;;;8.27;2.90;;;;;;;11.02;91.28;102328.69;5114059;28;20078;-35
2023/05/20 03:29:13;;;;;;;7.15;2.50;;;;;;;11.03;91.65;102333.91;5114075;28;20471;-36
2023/05/20 03:31:38;;;;;;;5.80;2.90;;;;;;;10.92;92.64;102328.19;5114055;28;20463;-36
2023/05/20 03:34:03;;;;;;;5.18;2.70;;;;;;;11.04;92.72;102343.69;5113657;28;20265;-36
2023/05/20 03:36:29;;;;;;;4.63;2.90;;;;;;;10.99;92.29;102337.22;5114300;28;20503;-36
2023/05/20 03:38:55;;;;;;;4.82;2.50;;;;;;;10.94;93.17;102337.81;5113344;28;20426;-36
2023/05/20 03:41:21;;;;;;;7.50;2.85;;;;;;;10.97;92.84;102345.50;5114171;28;20093;-36
2023/05/20 03:43:46;;;;;;;6.38;2.72;;;;;;;10.96;93.63;102338.44;5114363;28;20073;-36
2023/05/20 03:46:11;;;;;;;8.13;3.10;;;;;;;10.95;93.01;102342.19;5114481;28;20085;-36
2023/05/20 03:48:37;;;;;;;5.43;2.90;;;;;;;10.96;94.35;102335.72;5117466;28;20044;-36
2023/05/20 03:51:02;;;;;;;7.17;2.63;;;;;;;11.04;92.78;102332.88;5117404;28;20254;-36
2023/05/20 03:53:28;;;;;;;7.03;2.92;;;;;;;11.02;93.45;102334.09;5116968;28;20118;-36
2023/05/20 03:55:53;;;;;;;5.03;2.83;;;;;;;11.00;92.94;102336.19;5117135;28;20023;-36
2023/05/20 03:58:19;;;;;;;5.83;2.80;;;;;;;10.85;94.78;102333.56;5117369;27;20024;-36
2023/05/20 04:00:45;;;;;;;6.25;3.33;;;;;;;10.89;94.88;102334.03;5117685;28;20051;-36
2023/05/20 04:03:11;;;;;;;6.75;2.97;;;;;;;10.89;94.92;102345.69;5117140;28;20024;-35
2023/05/20 04:05:36;;;;;;;5.72;2.75;;;;;;;10.79;93.08;102334.38;5117485;28;20055;-36
2023/05/20 04:08:03;;;;;;;6.10;3.30;;;;;;;10.81;95.35;102335.00;5117352;28;20036;-36
2023/05/20 04:10:30;;;;;;;4.93;2.55;;;;;;;10.87;95.46;102328.78;5117071;28;20028;-36
2023/05/20 04:12:56;;;;;;;9.27;3.05;;;;;;;10.91;96.11;102335.47;5117796;28;20172;-36
2023/05/20 04:15:22;;;;;;;7.40;2.97;;;;;;;10.82;95.48;102328.53;5116981;28;20064;-36
2023/05/20 04:17:49;;;;;;;5.88;2.92;;;;;;;10.98;95.28;102332.81;5117496;27;20102;-36
2023/05/20 04:20:14;;;;;;;5.75;2.97;;;;;;;10.90;96.24;102336.53;5116807;28;20493;-36
2023/05/20 04:22:40;;;;;;;5.78;2.83;;;;;;;10.94;95.66;102336.97;5116564;28;20035;-36
2023/05/20 04:25:06;;;;;;;5.47;2.67;;;;;;;11.02;95.19;102331.38;5116710;28;20061;-36
2023/05/20 04:27:36;;;;;;;4.93;3.13;;;;;;;11.00;95.43;102342.41;5117588;28;20119;-36
2023/05/20 04:30:02;;;;;;;6.18;3.28;;;;;;;10.99;95.78;102331.81;5116939;28;20264;-35
2023/05/20 04:32:29;;;;;;;5.70;3.05;;;;;;;11.07;95.68;102343.28;5116936;28;20024;-35
2023/05/20 04:34:54;;;;;;;;;;;;;;;11.19;93.61;102350.88;5116966;28;20102;-36
2023/05/20 04:37:21;;;;;;;3.95;2.42;;;;;;;11.18;94.85;102341.09;5116840;28;20054;-36
2023/05/20 04:39:48;;;;;;;3.47;2.30;;;;;;;11.23;95.76;102336.75;5116389;28;20030;-36
2023/05/20 04:42:17;;;;;;;5.97;3.15;;;;;;;11.18;94.65;102330.28;5116498;28;20024;-36
2023/05/20 04:44:44;;;;;;;6.68;3.03;;;;;;;11.32;94.37;102340.13;5117172;28;20414;-36
2023/05/20 04:47:10;;;;;;;4.85;2.85;;;;;;;11.30;93.93;102339.50;5116888;28;20030;-35
2023/05/20 04:49:36;;;;;;;7.18;3.08;;;;;;;11.34;94.05;102335.34;5116003;28;20024;-35
2023/05/20 04:52:02;;;;;;;;;;;;;;;11.50;92.71;102337.72;5116717;28;20050;-36
2023/05/20 04:54:27;;;;;;;5.40;2.60;;;;;;;11.52;94.56;102349.22;5116117;28;19908;-36
2023/05/20 04:56:52;;;;;;;5.63;2.83;;;;;;;11.53;94.68;102350.88;5116388;28;20027;-36
2023/05/20 04:59:18;;;;;;;6.43;2.80;;;;;;;11.57;94.73;102348.59;5115652;28;20031;-36
2023/05/20 05:01:43;;;;;;;5.78;2.97;;;;;;;11.63;94.68;102346.97;5117208;28;20047;-36
2023/05/20 05:04:09;;;;;;;3.63;2.45;;;;;;;11.67;93.79;102343.66;5115965;28;20024;-36
2023/05/20 05:06:35;;;;;;;4.53;2.50;;;;;;;11.74;94.78;102332.81;5116797;28;20052;-36
2023/05/20 05:09:03;;;;;;;4.43;2.42;;;;;;;11.75;94.70;102340.75;5115908;28;20262;-36
2023/05/20 05:11:29;;;;;;;6.43;2.80;;;;;;;11.78;94.38;102334.94;5115899;28;20160;-36
2023/05/20 05:13:55;;;;;;;5.45;2.85;;;;;;;11.74;94.08;102322.00;5115489;28;20139;-36
2023/05/20 05:16:20;;;;;;;8.70;3.47;;;;;;;11.91;94.48;102331.47;5116057;28;20031;-36
2023/05/20 05:18:45;;;;;;;5.57;2.80;;;;;;;11.97;94.03;102330.66;5115491;28;20060;-36
2023/05/20 05:21:11;;;;;;;5.50;2.92;;;;;;;12.00;92.96;102326.69;5114343;28;20048;-36
2023/05/20 05:23:36;;;;;;;4.40;2.40;;;;;;;12.09;92.77;102326.28;5115328;28;20103;-36
2023/05/20 05:26:02;;;;;;;8.38;3.38;;;;;;;12.11;92.96;102323.41;5115890;28;20257;-36
2023/05/20 05:28:27;;;;;;;6.90;3.03;;;;;;;12.21;92.37;102318.41;5115570;28;20063;-36
2023/05/20 05:30:56;;;;;;;5.72;3.15;;;;;;;12.24;92.41;102311.72;5115227;28;20543;-36
2023/05/20 05:33:21;;;;;;;7.07;2.97;;;;;;;12.34;91.71;102326.53;5115079;28;20131;-36
2023/05/20 05:35:47;;;;;;;4.30;2.72;;;;;;;12.44;90.86;102323.44;5115405;28;20036;-35
2023/05/20 05:38:12;;;;;;;6.10;3.35;;;;;;;12.49;91.40;102326.38;5116117;28;20045;-36
2023/05/20 05:40:37;;;;;;;6.65;3.10;;;;;;;12.63;91.50;102316.34;5116036;28;20055;-36
2023/05/20 05:43:03;;;;;;;5.77;2.70;;;;;;;12.67;90.01;102303.19;5114911;28;20034;-36
2023/05/20 05:45:28;;;;;;;8.30;2.47;;;;;;;12.79;89.41;102323.25;5115430;28;20306;-36
2023/05/20 05:47:53;;;;;;;7.87;3.00;;;;;;;12.77;89.02;102315.28;5115211;28;20024;-36
2023/05/20 05:50:19;;;;;;;4.57;2.27;;;;;;;12.79;88.53;102313.22;5114199;28;20284;-36
2023/05/20 05:52:45;;;;;;;5.40;2.42;;;;;;;12.86;88.45;102319.47;5115328;28;20028;-36
2023/05/20 05:55:11;;;;;;;7.43;2.60;;;;;;;12.89;88.57;102310.09;5115404;28;20422;-36
2023/05/20 05:57:36;;;;;;;3.75;2.40;;;;;;;12.98;88.38;102316.97;5114950;28;20027;-37
2023/05/20 06:00:03;;;;;;;6.97;2.70;;;;;;;13.01;87.20;102302.94;5115352;28;20059;-37
2023/05/20 06:02:29;;;;;;;5.13;3.30;;;;;;;13.12;86.96;102318.59;5115427;27;20076;-37
2023/05/20 06:04:54;;;;;;;4.40;2.60;;;;;;;13.18;86.30;102313.38;5114890;28;20027;-37
2023/05/20 06:07:19;;;;;;;;;;;;;;;13.31;86.10;102314.19;5115308;28;20055;-37
2023/05/20 06:09:45;;;;;;;4.75;2.30;;;;;;;13.33;84.08;102312.09;5114214;28;19933;-37
2023/05/20 06:12:10;;;;;;;4.97;2.33;;;;;;;13.42;84.95;102315.44;5115030;28;20028;-37
2023/05/20 06:14:36;;;;;;;8.35;2.72;;;;;;;13.52;84.21;102332.13;5115454;28;20103;-37
2023/05/20 06:17:02;;;;;;;3.90;2.22;;;;;;;13.56;83.89;102311.59;5114937;28;20035;-37
2023/05/20 06:19:27;;;;;;;5.70;2.40;;;;;;;13.64;83.31;102313.25;5114504;28;20391;-37
2023/05/20 06:21:52;;;;;;;;;;;;;;;13.79;83.51;102316.50;5115268;28;20043;-37
2023/05/20 06:24:18;;;;;;;3.60;2.35;;;;;;;13.79;83.01;102311.06;5114479;28;19908;-37
2023/05/20 06:26:44;;;;;;;6.10;2.42;;;;;;;13.85;82.75;102303.94;5114489;28;20063;-37
2023/05/20 06:29:10;;;;;;;3.35;2.70;;;;;;;13.88;80.76;102308.94;5114105;28;20104;-35
2023/05/20 06:31:35;;;;;;;;;;;;;;;13.94;81.04;102305.34;5115469;28;20024;-36
2023/05/20 06:34:01;;;;;;;4.40;2.47;;;;;;;13.93;80.65;102305.56;5114624;28;19912;-36
2023/05/20 06:36:27;;;;;;;5.53;2.83;;;;;;;14.03;81.85;102301.31;5114889;28;20261;-36
2023/05/20 06:38:52;;;;;;;4.38;2.67;;;;;;;14.10;80.62;102299.41;5114182;28;20360;-35
2023/05/20 06:41:17;;;;;;;;;;;;;;;14.25;79.97;102288.22;5114313;28;20161;-35
2023/05/20 06:43:43;;;;;;;5.70;2.90;;;;;;;14.22;78.76;102285.09;5114098;28;19943;-35
2023/05/20 06:46:08;;;;;;;5.75;2.67;;;;;;;14.34;79.08;102277.88;5114484;28;20269;-36
2023/05/20 06:48:34;;;;;;;3.40;2.50;;;;;;;14.37;78.18;102285.63;5114085;28;20030;-35
2023/05/20 06:50:59;;;;;;;6.43;2.50;;;;;;;14.47;77.86;102285.13;5114188;28;20062;-36
2023/05/20 06:53:24;;;;;;;;;;;;;;;14.60;78.86;102283.16;5114790;28;20053;-36
2023/05/20 06:55:51;;;;;;;4.93;2.28;;;;;;;14.76;78.09;102284.47;5114590;28;19958;-36
2023/05/20 06:58:17;;;;;;;4.55;2.45;;;;;;;14.74;76.41;102283.00;5114004;28;20069;-36
2023/05/20 07:00:42;;;;;;;;;;;;;;;14.89;75.83;102272.63;5115390;28;20051;-36
2023/05/20 07:03:07;;;;;;;4.20;2.07;;;;;;;14.97;76.66;102277.75;5114472;28;19922;-36
2023/05/20 07:05:33;;;;;;;4.72;2.13;;;;;;;15.10;75.75;102279.53;5114488;28;20348;-36
2023/05/20 07:07:58;;;;;;;;;;;;;;;15.20;74.98;102279.81;5114353;28;20023;-36
2023/05/20 07:10:23;;;;;;;5.90;2.33;;;;;;;15.22;73.47;102268.69;5114493;28;19911;-36
2023/05/20 07:12:49;;;;;;;3.33;2.08;;;;;;;15.26;72.07;102267.19;5113863;28;20253;-36
2023/05/20 07:15:14;;;;;;;3.42;2.13;;;;;;;15.38;73.76;102268.09;5113913;28;20484;-36
2023/05/20 07:17:40;;;;;;;4.32;2.00;;;;;;;15.50;72.51;102271.69;5113820;28;20027;-36
2023/05/20 07:20:06;;;;;;;4.75;1.98;;;;;;;15.54;72.06;102270.19;5114005;28;20027;-36
2023/05/20 07:22:31;;;;;;;;;;;;;;;15.66;72.39;102260.22;5117148;28;20102;-36
2023/05/20 07:24:58;;;;;;;4.80;2.50;;;;;;;15.70;71.27;102264.13;5118532;28;19992;-36
2023/05/20 07:27:23;;;;;;;4.82;1.98;;;;;;;15.71;70.32;102254.03;5117880;27;20065;-36
2023/05/20 07:29:48;;;;;;;;;;;;;;;15.82;71.00;102252.44;5118228;28;20043;-36
2023/05/20 07:32:14;;;;;;;4.53;1.70;;;;;;;15.86;69.05;102256.34;5117777;28;19908;-36
2023/05/20 07:34:39;;;;;;;;;;;;;;;15.95;70.47;102253.06;5117924;28;20391;-36
2023/05/20 07:37:05;;;;;;;4.03;1.87;;;;;;;15.93;69.12;102247.03;5117973;28;20301;-36
2023/05/20 07:39:30;;;;;;;;;;;;;;;16.11;69.38;102254.31;5118347;27;20368;-36
2023/05/20 07:41:55;;;;;;;4.40;2.00;;;;;;;16.07;70.18;102246.81;5117917;28;19918;-36
2023/05/20 07:44:22;;;;;;;;;;;;;;;16.20;69.33;102247.44;5117688;27;20027;-36
2023/05/20 07:46:47;;;;;;;3.25;1.77;;;;;;;16.26;67.21;102240.22;5118104;28;19911;-36
2023/05/20 07:49:12;;;;;;;;;;;;;;;16.32;67.37;102244.72;5117605;28;20025;-36
2023/05/20 07:51:38;;;;;;;2.90;1.65;;;;;;;16.38;67.08;102232.84;5117184;28;19955;-36
2023/05/20 07:54:03;;;;;;;;;;;;;;;16.32;66.21;102239.28;5118353;28;20031;-37
2023/05/20 07:56:28;;;;;;;2.63;1.73;;;;;;;16.39;65.96;102239.16;5117289;28;19964;-36
2023/05/20 07:58:55;;;;;;;;;;;;;;;16.49;66.85;102247.59;5117690;28;20031;-36
2023/05/20 08:01:20;;;;;;;3.15;2.08;;;;;;;16.45;67.39;102233.59;5117731;28;19922;-36
2023/05/20 08:03:46;;;;;;;;;;;;;;;16.55;65.71;102241.19;5117581;28;20103;-36
2023/05/20 08:06:11;;;;;;;2.80;1.83;;;;;;;16.60;65.75;102235.03;5117667;28;19916;-36
2023/05/20 08:08:39;;;;;;;;;;;;;;;16.78;65.53;102232.19;5117816;28;20103;-36
2023/05/20 08:11:04;;;;;;;5.05;1.80;;;;;;;16.83;64.10;102232.28;5116810;28;19911;-36
2023/05/20 08:13:29;;;;;;;;;;;;;;;16.90;62.55;102221.25;5117969;28;20020;-36
2023/05/20 08:15:55;;;;;;;2.37;1.80;;;;;;;16.88;62.37;102234.31;5116983;28;20329;-36
2023/05/20 08:18:20;;;;;;;;;;;;;;;16.90;62.40;102230.28;5117286;28;20338;-36
2023/05/20 08:20:46;;;;;;;3.58;2.17;;;;;;;16.75;60.28;102226.38;5117095;28;19918;-36
2023/05/20 08:23:11;;;;;;;;;;;;;;;16.88;61.38;102226.09;5116928;28;20024;-36
2023/05/20 08:25:37;;;;;;;3.87;1.90;;;;;;;17.01;61.59;102223.13;5117123;28;19907;-36
2023/05/20 08:28:04;;;;;;;;;;;;;;;17.12;61.10;102222.25;5117143;28;20352;-36
2023/05/20 08:30:29;;;;;;;4.53;2.20;;;;;;;17.35;60.46;102215.09;5117033;28;19950;-36
2023/05/20 08:32:55;;;;;;;;;;;;;;;17.48;60.77;102214.81;5116655;28;20404;-36
2023/05/20 08:35:22;;;;;;;3.80;1.75;;;;;;;17.39;59.67;102213.53;5116388;28;19997;-36
2023/05/20 08:37:47;;;;;;;4.10;1.77;;;;;;;17.34;59.30;102203.31;5116206;28;20023;-36
2023/05/20 08:40:13;;;;;;;;;;;;;;;17.53;59.79;102208.59;5117187;28;20024;-36
2023/05/20 08:42:42;;;;;;;3.50;1.80;;;;;;;17.51;60.19;102209.66;5116398;28;19937;-36
2023/05/20 08:45:11;;;;;;;6.65;2.00;;;;;;;17.57;58.11;102204.28;5116978;28;20031;-36
2023/05/20 08:47:41;;;;;;;4.55;2.25;;;;;;;17.52;57.92;102196.84;5117060;28;20051;-36
2023/05/20 08:50:07;;;;;;;3.90;1.88;;;;;;;17.58;57.48;102201.31;5116536;28;20027;-36
2023/05/20 08:52:33;;;;;;;4.80;1.95;;;;;;;17.66;58.44;102208.28;5116799;28;20076;-36
2023/05/20 08:55:01;;;;;;;3.65;2.00;;;;;;;17.71;57.41;102202.91;5116200;28;20459;-36
2023/05/20 08:57:27;;;;;;;2.42;1.50;;;;;;;17.78;56.35;102209.09;5116725;28;20027;-36
2023/05/20 08:59:52;;;;;;;;;;;;;;;17.97;56.68;102206.97;5116889;28;20059;-36
2023/05/20 09:02:17;;;;;;;3.80;1.83;;;;;;;17.90;55.63;102182.47;5115934;28;19911;-36
2023/05/20 09:04:43;;;;;;;;;;;;;;;18.07;57.71;102198.09;5117158;28;20276;-37
2023/05/20 09:07:08;;;;;;;3.88;1.48;;;;;;;18.10;56.20;102190.19;5115651;28;19937;-36
2023/05/20 09:09:34;;;;;;;;;;;;;;;18.28;56.02;102192.69;5116321;28;20054;-36
2023/05/20 09:12:01;;;;;;;5.75;1.67;;;;;;;18.07;55.49;102193.47;5116066;28;19960;-36
2023/05/20 09:14:27;;;;;;;3.00;1.58;;;;;;;17.98;53.54;102192.22;5115464;28;20154;-37
2023/05/20 09:16:53;;;;;;;;;;;;;;;18.17;54.22;102190.06;5116389;28;20059;-36
2023/05/20 09:19:22;;;;;;;3.47;1.42;;;;;;;17.94;53.53;102175.44;5115528;28;19912;-36
2023/05/20 09:21:49;;;;;;;2.75;1.50;;;;;;;18.12;54.24;102182.59;5115322;28;20031;-36
2023/05/20 09:24:19;;;;;;;4.53;1.42;;;;;;;18.24;54.62;102182.50;5115500;28;20096;-36
2023/05/20 09:26:45;;;;;;;2.72;1.50;;;;;;;18.40;53.73;102186.31;5115692;28;20463;-36
2023/05/20 09:29:10;;;;;;;;;;;;;;;18.49;53.42;102182.88;5115469;27;20034;-36
2023/05/20 09:31:37;;;;;;;3.40;1.37;;;;;;;18.72;54.56;102176.38;5115382;28;19908;-36
2023/05/20 09:34:03;;;;;;;2.30;1.40;;;;;;;18.87;53.39;102183.97;5114972;27;20268;-36
2023/05/20 09:36:33;;;;;;;2.05;1.20;;;;;;;19.24;53.98;102181.44;5115342;28;20027;-36
2023/05/20 09:39:04;;;;;;;2.80;1.70;;;;;;;19.22;52.36;102180.84;5114996;28;20024;-36
2023/05/20 09:41:38;;;;;;;2.72;1.40;;;;;;;19.25;52.06;102172.13;5115391;28;20379;-36
2023/05/20 09:44:05;;;;;;;3.53;1.45;;;;;;;19.52;54.18;102174.88;5114333;28;20123;-36
2023/05/20 09:46:33;;;;;;;3.92;1.42;;;;;;;19.44;50.86;102171.78;5115660;28;20106;-36
2023/05/20 09:48:58;;;;;;;4.43;1.50;;;;;;;19.46;51.06;102164.09;5115006;28;20467;-36
2023/05/20 09:51:25;;;;;;;4.80;1.73;;;;;;;19.22;50.67;102153.41;5115020;28;20031;-36
2023/05/20 09:53:51;;;;;;;3.35;1.63;;;;;;;19.26;50.75;102182.00;5114649;28;20031;-36
2023/05/20 09:56:20;;;;;;;3.17;1.40;;;;;;;19.30;50.46;102169.44;5114709;28;20032;-36
2023/05/20 09:58:46;;;;;;;3.97;1.77;;;;;;;19.23;51.16;102160.59;5114846;28;20111;-36
2023/05/20 10:01:12;;;;;;;3.35;1.63;;;;;;;19.24;50.32;102172.38;5114646;28;20491;-36
2023/05/20 10:03:37;;;;;;;;;;;;;;;19.52;50.68;102169.41;5114863;28;20073;-36
2023/05/20 10:06:16;;;;;;;2.88;1.58;;;;;;;19.59;50.30;102162.88;5115169;28;20245;-36
2023/05/20 10:08:50;;;;;;;5.93;1.90;;;;;;;19.24;50.03;102162.25;5115506;28;20258;-36
2023/05/20 10:11:42;;;;;;;2.83;1.60;;;;;;;19.36;50.49;102153.84;5115171;28;20376;-36
2023/05/20 10:14:32;;;;;;;4.07;1.60;;;;;;;19.34;50.30;102146.97;5114645;28;20034;-36
2023/05/20 10:17:08;;;;;;;3.80;1.30;;;;;;;19.73;51.12;102151.25;5115386;28;20345;-36
2023/05/20 10:19:34;;;;;;;2.72;1.50;;;;;;;19.66;51.05;102136.06;5115063;28;20361;-36
2023/05/20 10:22:10;;;;;;;3.95;1.50;;;;;;;19.48;49.52;102131.78;5115064;28;20059;-36
2023/05/20 10:24:42;;;;;;;3.13;1.65;;;;;;;19.79;49.96;102141.13;5114789;28;20467;-36
2023/05/20 10:27:15;;;;;;;1.92;1.25;;;;;;;19.96;49.34;102149.22;5114367;28;20019;-36
2023/05/20 10:29:49;;;;;;;2.92;1.45;;;;;;;19.71;47.84;102147.09;5114736;28;20030;-36
2023/05/20 10:32:32;;;;;;;3.25;1.27;;;;;;;20.02;49.23;102134.47;5114084;28;20502;-36
2023/05/20 10:35:08;;;;;;;3.60;1.17;;;;;;;19.99;48.22;102133.06;5113958;28;20030;-36
2023/05/20 10:37:41;;;;;;;2.20;1.20;;;;;;;20.17;48.88;102122.75;5114803;28;20371;-38
2023/05/20 10:40:14;;;;;;;4.25;1.50;;;;;;;19.94;48.94;102126.69;5114117;28;20072;-37
2023/05/20 10:42:41;;;;;;;1.92;1.60;;;;;;;19.84;48.17;102126.63;5114945;28;20028;-37
2023/05/20 10:45:07;;;;;;;5.95;1.80;;;;;;;19.88;48.83;102120.34;5113761;28;20027;-37
2023/05/20 10:47:33;;;;;;;2.47;1.25;;;;;;;20.02;48.69;102121.56;5114382;28;20100;-37
2023/05/20 10:50:00;;;;;;;3.85;1.42;;;;;;;20.02;47.92;102112.50;5114077;28;20028;-37
2023/05/20 10:52:26;;;;;;;3.25;1.40;;;;;;;19.92;49.19;102126.97;5114511;28;20028;-37
2023/05/20 10:54:56;;;;;;;2.38;1.35;;;;;;;19.84;49.09;102112.91;5114723;28;20509;-38
2023/05/20 10:57:23;;;;;;;3.65;1.38;;;;;;;20.05;49.47;102111.94;5114038;28;20541;-37
2023/05/20 10:59:50;;;;;;;2.15;1.30;;;;;;;20.27;48.88;102111.84;5113485;28;20051;-37
2023/05/20 11:02:15;;;;;;;2.95;1.20;;;;;;;20.45;50.52;102119.63;5113898;28;20028;-37
2023/05/20 11:04:45;;;;;;;2.20;1.50;;;;;;;20.20;48.30;102101.06;5114574;28;20031;-37
2023/05/20 11:07:11;;;;;;;2.13;1.30;;;;;;;20.26;47.73;102112.94;5114831;28;20036;-37
2023/05/20 11:09:37;;;;;;;4.70;1.60;;;;;;;20.24;48.22;102107.69;5113931;28;20380;-37
2023/05/20 11:12:03;;;;;;;3.17;1.40;;;;;;;20.03;48.26;102100.41;5113926;28;20042;-37
2023/05/20 11:14:29;;;;;;;3.83;1.20;;;;;;;19.80;49.39;102099.69;5114431;28;20034;-37
2023/05/20 11:16:58;;;;;;;2.22;1.20;;;;;;;19.65;50.60;102094.09;5113601;28;20024;-37
2023/05/20 11:19:25;;;;;;;2.38;1.30;;;;;;;19.92;50.10;102096.78;5114039;28;20015;-37
2023/05/20 11:21:51;;;;;;;3.30;1.40;;;;;;;20.02;49.13;102068.56;5114632;28;20028;-37
2023/05/20 11:24:26;;;;;;;5.25;1.38;;;;;;;20.42;48.89;102078.94;5114088;28;20024;-37
2023/05/20 11:26:56;;;;;;;2.60;1.40;;;;;;;20.67;48.31;102091.19;5114151;28;20080;-37
2023/05/20 11:29:22;;;;;;;3.05;1.63;;;;;;;20.75;46.28;102087.94;5113398;28;20672;-37